Mars Hill, Louisiana
Current Conditions -  °F | °C
As of 10:55 PM on Monday 20 Oct 2014 (Local Time) from KIER Reporting Station
Clear Clear  
Wind Chill: 56°   Ceiling: Unl
Heat Index: 56°   Visibility: 10mi
Dew Point: 56°   Wind: 0mph
Humidity: 98%   Direction: NA
Pressure: 30.06"   Gusts: NA
Location:  31.8476°N, 92.7651°W
Report Text: KIER 210355Z AUTO 00000KT 10SM CLR 14/13 A3006 RMK AO2 T01360133
Loading
Personal Weather Stations






























Interactive Weather Map
Tropical Storm Tracking
New forecast layout! Learn more

10-Day Weather Forecast

Advertisements
Track Severe Weather on mobile